sensor_id;sensor_type;location;lat;lon;timestamp;P1;durP1;ratioP1;P2;durP2;ratioP2
11121;SDS011;5615;49.304;10.576;2023-12-07T00:01:18;42.33;;;25.63;;
11121;SDS011;5615;49.304;10.576;2023-12-07T00:03:44;41.07;;;25.13;;
11121;SDS011;5615;49.304;10.576;2023-12-07T00:06:10;44.57;;;26.40;;
11121;SDS011;5615;49.304;10.576;2023-12-07T00:08:38;43.13;;;26.70;;
11121;SDS011;5615;49.304;10.576;2023-12-07T00:11:05;42.60;;;26.73;;
11121;SDS011;5615;49.304;10.576;2023-12-07T00:13:32;41.73;;;25.70;;
11121;SDS011;5615;49.304;10.576;2023-12-07T00:15:59;48.43;;;27.07;;
11121;SDS011;5615;49.304;10.576;2023-12-07T00:18:25;43.97;;;25.23;;
11121;SDS011;5615;49.304;10.576;2023-12-07T00:20:52;45.30;;;26.27;;
11121;SDS011;5615;49.304;10.576;2023-12-07T00:23:19;43.50;;;25.70;;
11121;SDS011;5615;49.304;10.576;2023-12-07T00:25:47;46.43;;;27.40;;
11121;SDS011;5615;49.304;10.576;2023-12-07T00:28:14;42.90;;;25.60;;
11121;SDS011;5615;49.304;10.576;2023-12-07T00:30:41;44.13;;;27.37;;
11121;SDS011;5615;49.304;10.576;2023-12-07T00:33:08;46.57;;;26.97;;
11121;SDS011;5615;49.304;10.576;2023-12-07T00:35:35;48.60;;;26.53;;
11121;SDS011;5615;49.304;10.576;2023-12-07T00:38:01;43.83;;;27.03;;
11121;SDS011;5615;49.304;10.576;2023-12-07T00:40:28;48.73;;;29.07;;
11121;SDS011;5615;49.304;10.576;2023-12-07T00:42:56;48.93;;;29.00;;
11121;SDS011;5615;49.304;10.576;2023-12-07T00:45:24;44.60;;;27.17;;
11121;SDS011;5615;49.304;10.576;2023-12-07T00:47:50;48.03;;;28.37;;
11121;SDS011;5615;49.304;10.576;2023-12-07T00:50:17;43.17;;;27.40;;
11121;SDS011;5615;49.304;10.576;2023-12-07T00:52:43;45.07;;;25.70;;
11121;SDS011;5615;49.304;10.576;2023-12-07T00:55:10;46.77;;;27.60;;
11121;SDS011;5615;49.304;10.576;2023-12-07T00:57:37;43.30;;;26.70;;
11121;SDS011;5615;49.304;10.576;2023-12-07T01:00:06;45.17;;;26.97;;
11121;SDS011;5615;49.304;10.576;2023-12-07T01:02:33;46.27;;;27.57;;
11121;SDS011;5615;49.304;10.576;2023-12-07T01:05:00;45.97;;;26.53;;
11121;SDS011;5615;49.304;10.576;2023-12-07T01:07:26;46.43;;;27.50;;
11121;SDS011;5615;49.304;10.576;2023-12-07T01:09:53;51.10;;;30.33;;
11121;SDS011;5615;49.304;10.576;2023-12-07T01:12:20;50.93;;;31.50;;
11121;SDS011;5615;49.304;10.576;2023-12-07T01:14:46;51.03;;;29.80;;
11121;SDS011;5615;49.304;10.576;2023-12-07T01:17:14;47.07;;;28.67;;
11121;SDS011;5615;49.304;10.576;2023-12-07T01:19:41;47.10;;;27.87;;
11121;SDS011;5615;49.304;10.576;2023-12-07T01:22:08;46.97;;;29.27;;
11121;SDS011;5615;49.304;10.576;2023-12-07T01:24:34;47.40;;;27.97;;
11121;SDS011;5615;49.304;10.576;2023-12-07T01:27:01;51.17;;;29.73;;
11121;SDS011;5615;49.304;10.576;2023-12-07T01:29:27;48.53;;;28.87;;
11121;SDS011;5615;49.304;10.576;2023-12-07T01:31:54;52.10;;;29.07;;
11121;SDS011;5615;49.304;10.576;2023-12-07T01:34:22;47.80;;;28.13;;
11121;SDS011;5615;49.304;10.576;2023-12-07T01:36:49;49.50;;;28.03;;
11121;SDS011;5615;49.304;10.576;2023-12-07T01:39:15;52.80;;;28.63;;
11121;SDS011;5615;49.304;10.576;2023-12-07T01:41:42;57.67;;;30.67;;
11121;SDS011;5615;49.304;10.576;2023-12-07T01:44:09;51.47;;;30.20;;
11121;SDS011;5615;49.304;10.576;2023-12-07T01:46:35;51.20;;;30.50;;
11121;SDS011;5615;49.304;10.576;2023-12-07T01:49:02;53.20;;;31.37;;
11121;SDS011;5615;49.304;10.576;2023-12-07T01:51:31;52.10;;;31.37;;
11121;SDS011;5615;49.304;10.576;2023-12-07T01:53:57;49.83;;;30.43;;
11121;SDS011;5615;49.304;10.576;2023-12-07T01:56:24;53.03;;;31.33;;
11121;SDS011;5615;49.304;10.576;2023-12-07T01:58:52;57.23;;;30.60;;
11121;SDS011;5615;49.304;10.576;2023-12-07T02:01:19;52.73;;;31.13;;
11121;SDS011;5615;49.304;10.576;2023-12-07T02:03:45;55.90;;;31.80;;
11121;SDS011;5615;49.304;10.576;2023-12-07T02:06:12;50.53;;;30.40;;
11121;SDS011;5615;49.304;10.576;2023-12-07T02:08:40;55.37;;;30.43;;
11121;SDS011;5615;49.304;10.576;2023-12-07T02:11:07;50.90;;;30.13;;
11121;SDS011;5615;49.304;10.576;2023-12-07T02:13:34;51.07;;;28.93;;
11121;SDS011;5615;49.304;10.576;2023-12-07T02:16:03;48.53;;;30.67;;
11121;SDS011;5615;49.304;10.576;2023-12-07T02:18:37;50.63;;;31.50;;
11121;SDS011;5615;49.304;10.576;2023-12-07T02:21:08;51.33;;;30.73;;
11121;SDS011;5615;49.304;10.576;2023-12-07T02:23:43;50.57;;;29.50;;
11121;SDS011;5615;49.304;10.576;2023-12-07T02:26:13;51.57;;;31.13;;
11121;SDS011;5615;49.304;10.576;2023-12-07T02:28:45;56.67;;;30.47;;
11121;SDS011;5615;49.304;10.576;2023-12-07T02:31:12;51.87;;;30.03;;
11121;SDS011;5615;49.304;10.576;2023-12-07T02:33:39;46.10;;;29.57;;
11121;SDS011;5615;49.304;10.576;2023-12-07T02:36:06;52.10;;;31.37;;
11121;SDS011;5615;49.304;10.576;2023-12-07T02:38:33;49.97;;;29.60;;
11121;SDS011;5615;49.304;10.576;2023-12-07T02:41:01;50.40;;;29.23;;
11121;SDS011;5615;49.304;10.576;2023-12-07T02:43:28;48.17;;;28.97;;
11121;SDS011;5615;49.304;10.576;2023-12-07T02:45:56;46.30;;;29.43;;
11121;SDS011;5615;49.304;10.576;2023-12-07T02:48:23;46.13;;;29.73;;
11121;SDS011;5615;49.304;10.576;2023-12-07T02:50:51;47.30;;;29.23;;
11121;SDS011;5615;49.304;10.576;2023-12-07T02:53:18;46.20;;;28.43;;
11121;SDS011;5615;49.304;10.576;2023-12-07T02:55:44;44.60;;;28.67;;
11121;SDS011;5615;49.304;10.576;2023-12-07T02:58:11;50.43;;;29.03;;
11121;SDS011;5615;49.304;10.576;2023-12-07T03:00:38;46.87;;;29.80;;
11121;SDS011;5615;49.304;10.576;2023-12-07T03:03:06;44.87;;;27.60;;
11121;SDS011;5615;49.304;10.576;2023-12-07T03:05:32;49.20;;;30.10;;
11121;SDS011;5615;49.304;10.576;2023-12-07T03:07:59;50.07;;;29.53;;
11121;SDS011;5615;49.304;10.576;2023-12-07T03:10:26;48.87;;;29.93;;
11121;SDS011;5615;49.304;10.576;2023-12-07T03:12:52;49.50;;;30.53;;
11121;SDS011;5615;49.304;10.576;2023-12-07T03:15:19;47.70;;;29.23;;
11121;SDS011;5615;49.304;10.576;2023-12-07T03:17:45;50.07;;;29.70;;
11121;SDS011;5615;49.304;10.576;2023-12-07T03:20:14;53.20;;;30.43;;
11121;SDS011;5615;49.304;10.576;2023-12-07T03:22:40;47.73;;;29.83;;
11121;SDS011;5615;49.304;10.576;2023-12-07T03:25:07;54.57;;;30.67;;
11121;SDS011;5615;49.304;10.576;2023-12-07T03:27:34;53.10;;;30.70;;
11121;SDS011;5615;49.304;10.576;2023-12-07T03:30:00;47.47;;;29.57;;
11121;SDS011;5615;49.304;10.576;2023-12-07T03:32:27;51.70;;;30.40;;
11121;SDS011;5615;49.304;10.576;2023-12-07T03:34:54;51.10;;;30.63;;
11121;SDS011;5615;49.304;10.576;2023-12-07T03:37:22;52.77;;;31.97;;
11121;SDS011;5615;49.304;10.576;2023-12-07T03:39:48;51.63;;;31.13;;
11121;SDS011;5615;49.304;10.576;2023-12-07T03:42:15;51.37;;;30.20;;
11121;SDS011;5615;49.304;10.576;2023-12-07T03:44:42;52.50;;;30.90;;
11121;SDS011;5615;49.304;10.576;2023-12-07T03:47:08;52.17;;;29.43;;
11121;SDS011;5615;49.304;10.576;2023-12-07T03:49:35;52.30;;;31.47;;
11121;SDS011;5615;49.304;10.576;2023-12-07T03:52:03;52.53;;;30.63;;
11121;SDS011;5615;49.304;10.576;2023-12-07T03:54:32;54.83;;;30.60;;
11121;SDS011;5615;49.304;10.576;2023-12-07T03:56:59;48.40;;;30.60;;
11121;SDS011;5615;49.304;10.576;2023-12-07T03:59:26;46.07;;;29.17;;
11121;SDS011;5615;49.304;10.576;2023-12-07T04:01:53;48.80;;;31.13;;
11121;SDS011;5615;49.304;10.576;2023-12-07T04:04:19;53.83;;;30.97;;
11121;SDS011;5615;49.304;10.576;2023-12-07T04:06:46;53.40;;;32.50;;
11121;SDS011;5615;49.304;10.576;2023-12-07T04:09:13;62.73;;;37.87;;
11121;SDS011;5615;49.304;10.576;2023-12-07T04:11:41;73.23;;;42.87;;
11121;SDS011;5615;49.304;10.576;2023-12-07T04:14:08;114.77;;;71.97;;
11121;SDS011;5615;49.304;10.576;2023-12-07T04:16:34;51.17;;;31.50;;
11121;SDS011;5615;49.304;10.576;2023-12-07T04:19:01;48.27;;;29.10;;
11121;SDS011;5615;49.304;10.576;2023-12-07T04:21:28;56.30;;;36.23;;
11121;SDS011;5615;49.304;10.576;2023-12-07T04:23:55;53.37;;;35.07;;
11121;SDS011;5615;49.304;10.576;2023-12-07T04:26:21;50.17;;;30.53;;
11121;SDS011;5615;49.304;10.576;2023-12-07T04:28:49;55.63;;;31.50;;
11121;SDS011;5615;49.304;10.576;2023-12-07T04:31:16;52.60;;;31.27;;
11121;SDS011;5615;49.304;10.576;2023-12-07T04:33:43;49.33;;;28.97;;
11121;SDS011;5615;49.304;10.576;2023-12-07T04:36:09;51.23;;;30.27;;
11121;SDS011;5615;49.304;10.576;2023-12-07T04:38:37;50.50;;;30.20;;
11121;SDS011;5615;49.304;10.576;2023-12-07T04:41:03;48.43;;;30.13;;
11121;SDS011;5615;49.304;10.576;2023-12-07T04:43:30;59.63;;;33.37;;
11121;SDS011;5615;49.304;10.576;2023-12-07T04:45:58;55.70;;;31.50;;
11121;SDS011;5615;49.304;10.576;2023-12-07T04:48:25;55.53;;;32.03;;
11121;SDS011;5615;49.304;10.576;2023-12-07T04:50:52;50.97;;;31.00;;
11121;SDS011;5615;49.304;10.576;2023-12-07T04:53:18;52.90;;;31.43;;
11121;SDS011;5615;49.304;10.576;2023-12-07T04:55:45;56.17;;;30.80;;
11121;SDS011;5615;49.304;10.576;2023-12-07T04:58:15;58.70;;;33.10;;
11121;SDS011;5615;49.304;10.576;2023-12-07T05:00:41;54.37;;;32.40;;
11121;SDS011;5615;49.304;10.576;2023-12-07T05:03:09;58.47;;;31.90;;
11121;SDS011;5615;49.304;10.576;2023-12-07T05:05:36;57.27;;;32.73;;
11121;SDS011;5615;49.304;10.576;2023-12-07T05:08:03;58.70;;;34.20;;
11121;SDS011;5615;49.304;10.576;2023-12-07T05:10:30;58.20;;;32.57;;
11121;SDS011;5615;49.304;10.576;2023-12-07T05:12:56;57.27;;;32.43;;
11121;SDS011;5615;49.304;10.576;2023-12-07T05:15:23;60.83;;;33.80;;
11121;SDS011;5615;49.304;10.576;2023-12-07T05:17:50;61.37;;;33.37;;
11121;SDS011;5615;49.304;10.576;2023-12-07T05:20:18;57.90;;;32.97;;
11121;SDS011;5615;49.304;10.576;2023-12-07T05:22:47;59.93;;;33.07;;
11121;SDS011;5615;49.304;10.576;2023-12-07T05:25:14;58.97;;;33.67;;
11121;SDS011;5615;49.304;10.576;2023-12-07T05:27:41;60.03;;;35.03;;
11121;SDS011;5615;49.304;10.576;2023-12-07T05:30:08;63.77;;;34.80;;
11121;SDS011;5615;49.304;10.576;2023-12-07T05:32:35;76.00;;;44.47;;
11121;SDS011;5615;49.304;10.576;2023-12-07T05:35:02;58.90;;;34.43;;
11121;SDS011;5615;49.304;10.576;2023-12-07T05:37:32;60.77;;;33.53;;
11121;SDS011;5615;49.304;10.576;2023-12-07T05:39:58;59.53;;;33.23;;
11121;SDS011;5615;49.304;10.576;2023-12-07T05:42:26;61.07;;;33.73;;
11121;SDS011;5615;49.304;10.576;2023-12-07T05:44:52;61.57;;;33.80;;
11121;SDS011;5615;49.304;10.576;2023-12-07T05:47:20;66.03;;;35.33;;
11121;SDS011;5615;49.304;10.576;2023-12-07T05:49:48;68.53;;;36.10;;
11121;SDS011;5615;49.304;10.576;2023-12-07T05:52:15;69.63;;;35.67;;
11121;SDS011;5615;49.304;10.576;2023-12-07T05:54:42;64.77;;;35.63;;
11121;SDS011;5615;49.304;10.576;2023-12-07T05:57:11;64.57;;;35.83;;
11121;SDS011;5615;49.304;10.576;2023-12-07T05:59:38;69.73;;;35.87;;
11121;SDS011;5615;49.304;10.576;2023-12-07T06:02:06;64.33;;;35.33;;
11121;SDS011;5615;49.304;10.576;2023-12-07T06:04:33;65.20;;;34.87;;
11121;SDS011;5615;49.304;10.576;2023-12-07T06:07:00;63.70;;;35.63;;
11121;SDS011;5615;49.304;10.576;2023-12-07T06:09:27;60.57;;;33.70;;
11121;SDS011;5615;49.304;10.576;2023-12-07T06:11:55;67.70;;;35.87;;
11121;SDS011;5615;49.304;10.576;2023-12-07T06:14:22;62.20;;;35.83;;
11121;SDS011;5615;49.304;10.576;2023-12-07T06:16:49;63.87;;;35.50;;
11121;SDS011;5615;49.304;10.576;2023-12-07T06:19:15;71.63;;;36.63;;
11121;SDS011;5615;49.304;10.576;2023-12-07T06:21:42;70.77;;;37.10;;
11121;SDS011;5615;49.304;10.576;2023-12-07T06:24:10;74.57;;;37.30;;
11121;SDS011;5615;49.304;10.576;2023-12-07T06:26:36;74.30;;;37.53;;
11121;SDS011;5615;49.304;10.576;2023-12-07T06:29:04;73.53;;;37.87;;
11121;SDS011;5615;49.304;10.576;2023-12-07T06:31:32;123.83;;;53.10;;
11121;SDS011;5615;49.304;10.576;2023-12-07T06:33:59;85.23;;;42.00;;
11121;SDS011;5615;49.304;10.576;2023-12-07T06:36:26;82.90;;;40.87;;
11121;SDS011;5615;49.304;10.576;2023-12-07T06:38:52;75.73;;;38.40;;
11121;SDS011;5615;49.304;10.576;2023-12-07T06:41:19;73.90;;;39.70;;
11121;SDS011;5615;49.304;10.576;2023-12-07T06:43:46;76.47;;;40.13;;
11121;SDS011;5615;49.304;10.576;2023-12-07T06:46:14;75.77;;;42.17;;
11121;SDS011;5615;49.304;10.576;2023-12-07T06:48:41;71.23;;;39.03;;
11121;SDS011;5615;49.304;10.576;2023-12-07T06:51:08;83.13;;;42.33;;
11121;SDS011;5615;49.304;10.576;2023-12-07T06:53:35;71.17;;;37.40;;
11121;SDS011;5615;49.304;10.576;2023-12-07T06:56:01;67.43;;;36.33;;
11121;SDS011;5615;49.304;10.576;2023-12-07T06:58:28;70.40;;;36.47;;
11121;SDS011;5615;49.304;10.576;2023-12-07T07:00:55;75.00;;;37.00;;
11121;SDS011;5615;49.304;10.576;2023-12-07T07:03:23;93.23;;;45.37;;
11121;SDS011;5615;49.304;10.576;2023-12-07T07:05:50;89.90;;;44.03;;
11121;SDS011;5615;49.304;10.576;2023-12-07T07:08:17;77.37;;;41.33;;
11121;SDS011;5615;49.304;10.576;2023-12-07T07:10:43;75.63;;;40.37;;
11121;SDS011;5615;49.304;10.576;2023-12-07T07:13:10;77.73;;;41.20;;
11121;SDS011;5615;49.304;10.576;2023-12-07T07:15:41;72.70;;;37.03;;
11121;SDS011;5615;49.304;10.576;2023-12-07T07:18:08;72.73;;;37.07;;
11121;SDS011;5615;49.304;10.576;2023-12-07T07:20:36;67.27;;;35.10;;
11121;SDS011;5615;49.304;10.576;2023-12-07T07:23:03;145.27;;;57.87;;
11121;SDS011;5615;49.304;10.576;2023-12-07T07:25:29;81.73;;;41.10;;
11121;SDS011;5615;49.304;10.576;2023-12-07T07:27:56;81.70;;;40.80;;
11121;SDS011;5615;49.304;10.576;2023-12-07T07:30:23;71.70;;;40.23;;
11121;SDS011;5615;49.304;10.576;2023-12-07T07:32:50;72.47;;;38.00;;
11121;SDS011;5615;49.304;10.576;2023-12-07T07:35:16;71.13;;;37.27;;
11121;SDS011;5615;49.304;10.576;2023-12-07T07:37:44;72.07;;;36.57;;
11121;SDS011;5615;49.304;10.576;2023-12-07T07:40:11;74.47;;;38.67;;
11121;SDS011;5615;49.304;10.576;2023-12-07T07:42:38;73.80;;;36.57;;
11121;SDS011;5615;49.304;10.576;2023-12-07T07:45:05;66.07;;;36.47;;
11121;SDS011;5615;49.304;10.576;2023-12-07T07:47:33;66.07;;;35.90;;
11121;SDS011;5615;49.304;10.576;2023-12-07T07:50:00;60.97;;;33.93;;
11121;SDS011;5615;49.304;10.576;2023-12-07T07:52:30;63.00;;;36.17;;
11121;SDS011;5615;49.304;10.576;2023-12-07T07:54:58;61.67;;;34.30;;
11121;SDS011;5615;49.304;10.576;2023-12-07T07:57:25;53.97;;;32.33;;
11121;SDS011;5615;49.304;10.576;2023-12-07T07:59:52;56.13;;;33.60;;
11121;SDS011;5615;49.304;10.576;2023-12-07T08:02:19;53.83;;;31.93;;
11121;SDS011;5615;49.304;10.576;2023-12-07T08:04:46;55.20;;;31.93;;
11121;SDS011;5615;49.304;10.576;2023-12-07T08:07:13;53.00;;;31.00;;
11121;SDS011;5615;49.304;10.576;2023-12-07T08:09:41;53.23;;;32.00;;
11121;SDS011;5615;49.304;10.576;2023-12-07T08:12:09;51.20;;;31.63;;
11121;SDS011;5615;49.304;10.576;2023-12-07T08:14:36;54.00;;;31.93;;
11121;SDS011;5615;49.304;10.576;2023-12-07T08:17:03;53.57;;;31.43;;
11121;SDS011;5615;49.304;10.576;2023-12-07T08:19:29;49.60;;;30.83;;
11121;SDS011;5615;49.304;10.576;2023-12-07T08:21:56;46.83;;;29.77;;
11121;SDS011;5615;49.304;10.576;2023-12-07T08:24:23;48.30;;;29.07;;
11121;SDS011;5615;49.304;10.576;2023-12-07T08:26:50;45.40;;;27.17;;
11121;SDS011;5615;49.304;10.576;2023-12-07T08:29:18;46.10;;;27.40;;
11121;SDS011;5615;49.304;10.576;2023-12-07T08:31:45;39.50;;;26.50;;
11121;SDS011;5615;49.304;10.576;2023-12-07T08:34:12;35.53;;;21.47;;
11121;SDS011;5615;49.304;10.576;2023-12-07T08:36:39;30.93;;;22.27;;
11121;SDS011;5615;49.304;10.576;2023-12-07T08:39:05;33.93;;;22.90;;
11121;SDS011;5615;49.304;10.576;2023-12-07T08:41:34;22.00;;;15.77;;
11121;SDS011;5615;49.304;10.576;2023-12-07T08:44:01;26.43;;;17.60;;
11121;SDS011;5615;49.304;10.576;2023-12-07T08:46:29;23.67;;;17.07;;
11121;SDS011;5615;49.304;10.576;2023-12-07T08:48:56;23.73;;;17.17;;
11121;SDS011;5615;49.304;10.576;2023-12-07T08:51:22;26.90;;;18.37;;
11121;SDS011;5615;49.304;10.576;2023-12-07T08:53:50;20.93;;;13.90;;
11121;SDS011;5615;49.304;10.576;2023-12-07T08:56:17;19.03;;;13.10;;
11121;SDS011;5615;49.304;10.576;2023-12-07T08:58:44;20.43;;;14.83;;
11121;SDS011;5615;49.304;10.576;2023-12-07T09:01:10;17.17;;;12.73;;
11121;SDS011;5615;49.304;10.576;2023-12-07T09:03:38;21.87;;;14.50;;
11121;SDS011;5615;49.304;10.576;2023-12-07T09:06:06;21.03;;;15.10;;
11121;SDS011;5615;49.304;10.576;2023-12-07T09:08:33;19.40;;;14.27;;
11121;SDS011;5615;49.304;10.576;2023-12-07T09:11:00;18.73;;;13.13;;
11121;SDS011;5615;49.304;10.576;2023-12-07T09:13:28;16.60;;;13.03;;
11121;SDS011;5615;49.304;10.576;2023-12-07T09:15:55;16.43;;;12.27;;
11121;SDS011;5615;49.304;10.576;2023-12-07T09:18:22;18.23;;;13.47;;
11121;SDS011;5615;49.304;10.576;2023-12-07T09:20:51;15.47;;;13.03;;
11121;SDS011;5615;49.304;10.576;2023-12-07T09:23:17;19.67;;;12.97;;
11121;SDS011;5615;49.304;10.576;2023-12-07T09:25:45;18.07;;;13.90;;
11121;SDS011;5615;49.304;10.576;2023-12-07T09:28:12;16.83;;;13.37;;
11121;SDS011;5615;49.304;10.576;2023-12-07T09:30:38;18.93;;;14.30;;
11121;SDS011;5615;49.304;10.576;2023-12-07T09:33:05;17.53;;;13.63;;
11121;SDS011;5615;49.304;10.576;2023-12-07T09:35:32;20.57;;;14.77;;
11121;SDS011;5615;49.304;10.576;2023-12-07T09:38:00;20.43;;;15.53;;
11121;SDS011;5615;49.304;10.576;2023-12-07T09:40:27;23.67;;;15.73;;
11121;SDS011;5615;49.304;10.576;2023-12-07T09:42:55;20.53;;;14.73;;
11121;SDS011;5615;49.304;10.576;2023-12-07T09:45:22;21.00;;;15.83;;
11121;SDS011;5615;49.304;10.576;2023-12-07T09:47:49;21.63;;;16.97;;
11121;SDS011;5615;49.304;10.576;2023-12-07T09:50:17;20.07;;;15.27;;
11121;SDS011;5615;49.304;10.576;2023-12-07T09:52:47;22.17;;;15.77;;
11121;SDS011;5615;49.304;10.576;2023-12-07T09:55:16;20.10;;;14.50;;
11121;SDS011;5615;49.304;10.576;2023-12-07T09:57:44;17.60;;;14.27;;
11121;SDS011;5615;49.304;10.576;2023-12-07T10:00:11;19.90;;;15.27;;
11121;SDS011;5615;49.304;10.576;2023-12-07T10:02:40;20.53;;;14.60;;
11121;SDS011;5615;49.304;10.576;2023-12-07T10:05:08;18.37;;;14.23;;
11121;SDS011;5615;49.304;10.576;2023-12-07T10:07:36;17.13;;;14.30;;
11121;SDS011;5615;49.304;10.576;2023-12-07T10:10:07;15.53;;;12.90;;
11121;SDS011;5615;49.304;10.576;2023-12-07T10:12:44;17.77;;;14.43;;
11121;SDS011;5615;49.304;10.576;2023-12-07T10:15:12;16.53;;;14.70;;
11121;SDS011;5615;49.304;10.576;2023-12-07T10:17:43;16.83;;;14.40;;
11121;SDS011;5615;49.304;10.576;2023-12-07T10:20:13;19.87;;;15.53;;
11121;SDS011;5615;49.304;10.576;2023-12-07T10:22:41;17.03;;;14.83;;
11121;SDS011;5615;49.304;10.576;2023-12-07T10:25:08;17.77;;;14.73;;
11121;SDS011;5615;49.304;10.576;2023-12-07T10:27:37;15.77;;;14.07;;
11121;SDS011;5615;49.304;10.576;2023-12-07T10:30:06;15.37;;;13.77;;
11121;SDS011;5615;49.304;10.576;2023-12-07T10:32:36;15.50;;;13.90;;
11121;SDS011;5615;49.304;10.576;2023-12-07T10:35:04;16.23;;;14.60;;
11121;SDS011;5615;49.304;10.576;2023-12-07T10:37:33;14.43;;;13.03;;
11121;SDS011;5615;49.304;10.576;2023-12-07T10:39:59;17.67;;;15.20;;
11121;SDS011;5615;49.304;10.576;2023-12-07T10:42:26;15.87;;;14.17;;
11121;SDS011;5615;49.304;10.576;2023-12-07T10:44:58;16.67;;;14.63;;
11121;SDS011;5615;49.304;10.576;2023-12-07T10:47:30;15.33;;;13.73;;
11121;SDS011;5615;49.304;10.576;2023-12-07T10:49:58;15.23;;;13.60;;
11121;SDS011;5615;49.304;10.576;2023-12-07T10:52:27;17.93;;;15.43;;
11121;SDS011;5615;49.304;10.576;2023-12-07T10:55:00;19.63;;;17.00;;
11121;SDS011;5615;49.304;10.576;2023-12-07T10:57:29;19.77;;;16.60;;
11121;SDS011;5615;49.304;10.576;2023-12-07T10:59:59;17.57;;;15.03;;
11121;SDS011;5615;49.304;10.576;2023-12-07T11:02:27;18.37;;;16.30;;
11121;SDS011;5615;49.304;10.576;2023-12-07T11:04:55;22.00;;;17.73;;
11121;SDS011;5615;49.304;10.576;2023-12-07T11:07:24;17.33;;;14.90;;
11121;SDS011;5615;49.304;10.576;2023-12-07T11:09:58;17.90;;;15.00;;
11121;SDS011;5615;49.304;10.576;2023-12-07T11:12:33;17.97;;;15.37;;
11121;SDS011;5615;49.304;10.576;2023-12-07T11:15:08;14.60;;;12.30;;
11121;SDS011;5615;49.304;10.576;2023-12-07T11:17:47;16.20;;;14.10;;
11121;SDS011;5615;49.304;10.576;2023-12-07T11:20:18;13.93;;;12.43;;
11121;SDS011;5615;49.304;10.576;2023-12-07T11:22:45;14.10;;;12.63;;
11121;SDS011;5615;49.304;10.576;2023-12-07T11:25:14;16.27;;;14.50;;
11121;SDS011;5615;49.304;10.576;2023-12-07T11:27:43;14.63;;;13.10;;
11121;SDS011;5615;49.304;10.576;2023-12-07T11:30:14;15.60;;;14.10;;
11121;SDS011;5615;49.304;10.576;2023-12-07T11:32:41;15.83;;;14.33;;
11121;SDS011;5615;49.304;10.576;2023-12-07T11:35:11;17.57;;;15.77;;
11121;SDS011;5615;49.304;10.576;2023-12-07T11:40:28;16.33;;;14.63;;
11121;SDS011;5615;49.304;10.576;2023-12-07T11:42:56;15.93;;;14.07;;
11121;SDS011;5615;49.304;10.576;2023-12-07T11:45:39;15.70;;;14.20;;
11121;SDS011;5615;49.304;10.576;2023-12-07T11:48:10;15.70;;;14.10;;
11121;SDS011;5615;49.304;10.576;2023-12-07T11:53:21;16.27;;;14.50;;
11121;SDS011;5615;49.304;10.576;2023-12-07T11:55:49;15.67;;;13.83;;
11121;SDS011;5615;49.304;10.576;2023-12-07T11:58:16;19.73;;;16.83;;
11121;SDS011;5615;49.304;10.576;2023-12-07T12:00:44;19.43;;;15.80;;
11121;SDS011;5615;49.304;10.576;2023-12-07T12:03:12;18.77;;;14.80;;
11121;SDS011;5615;49.304;10.576;2023-12-07T12:05:38;16.93;;;15.07;;
11121;SDS011;5615;49.304;10.576;2023-12-07T12:08:05;18.27;;;15.07;;
11121;SDS011;5615;49.304;10.576;2023-12-07T12:10:32;18.30;;;15.57;;
11121;SDS011;5615;49.304;10.576;2023-12-07T12:13:01;18.03;;;15.00;;
11121;SDS011;5615;49.304;10.576;2023-12-07T12:15:28;17.47;;;14.77;;
11121;SDS011;5615;49.304;10.576;2023-12-07T12:17:56;16.70;;;14.50;;
11121;SDS011;5615;49.304;10.576;2023-12-07T12:20:23;19.13;;;14.10;;
11121;SDS011;5615;49.304;10.576;2023-12-07T12:22:50;18.50;;;13.90;;
11121;SDS011;5615;49.304;10.576;2023-12-07T12:25:18;15.77;;;14.07;;
11121;SDS011;5615;49.304;10.576;2023-12-07T12:27:47;17.47;;;13.83;;
11121;SDS011;5615;49.304;10.576;2023-12-07T12:30:15;18.67;;;15.77;;
11121;SDS011;5615;49.304;10.576;2023-12-07T12:32:42;16.40;;;13.80;;
11121;SDS011;5615;49.304;10.576;2023-12-07T12:35:11;19.10;;;14.60;;
11121;SDS011;5615;49.304;10.576;2023-12-07T12:37:39;17.10;;;14.67;;
11121;SDS011;5615;49.304;10.576;2023-12-07T12:40:06;21.57;;;15.50;;
11121;SDS011;5615;49.304;10.576;2023-12-07T12:42:33;17.80;;;15.20;;
11121;SDS011;5615;49.304;10.576;2023-12-07T12:45:02;15.67;;;13.97;;
11121;SDS011;5615;49.304;10.576;2023-12-07T12:47:29;14.97;;;12.80;;
11121;SDS011;5615;49.304;10.576;2023-12-07T12:49:56;20.00;;;14.77;;
11121;SDS011;5615;49.304;10.576;2023-12-07T12:52:24;16.93;;;14.27;;
11121;SDS011;5615;49.304;10.576;2023-12-07T12:54:51;19.27;;;15.70;;
11121;SDS011;5615;49.304;10.576;2023-12-07T12:57:18;22.93;;;17.20;;
11121;SDS011;5615;49.304;10.576;2023-12-07T12:59:45;20.73;;;16.10;;
11121;SDS011;5615;49.304;10.576;2023-12-07T13:02:13;21.67;;;16.47;;
11121;SDS011;5615;49.304;10.576;2023-12-07T13:04:39;19.50;;;15.43;;
11121;SDS011;5615;49.304;10.576;2023-12-07T13:07:06;20.77;;;15.27;;
11121;SDS011;5615;49.304;10.576;2023-12-07T13:09:34;18.57;;;15.10;;
11121;SDS011;5615;49.304;10.576;2023-12-07T13:12:01;16.80;;;14.60;;
11121;SDS011;5615;49.304;10.576;2023-12-07T13:14:28;18.13;;;15.23;;
11121;SDS011;5615;49.304;10.576;2023-12-07T13:16:54;21.13;;;15.60;;
11121;SDS011;5615;49.304;10.576;2023-12-07T13:19:21;18.93;;;14.83;;
11121;SDS011;5615;49.304;10.576;2023-12-07T13:21:47;21.83;;;15.90;;
11121;SDS011;5615;49.304;10.576;2023-12-07T13:24:14;19.70;;;15.80;;
11121;SDS011;5615;49.304;10.576;2023-12-07T13:26:44;21.07;;;16.67;;
11121;SDS011;5615;49.304;10.576;2023-12-07T13:29:10;18.60;;;15.30;;
11121;SDS011;5615;49.304;10.576;2023-12-07T13:31:37;17.03;;;13.80;;
11121;SDS011;5615;49.304;10.576;2023-12-07T13:34:04;16.07;;;13.80;;
11121;SDS011;5615;49.304;10.576;2023-12-07T13:36:31;17.37;;;12.87;;
11121;SDS011;5615;49.304;10.576;2023-12-07T13:38:58;19.03;;;14.37;;
11121;SDS011;5615;49.304;10.576;2023-12-07T13:41:27;17.33;;;13.60;;
11121;SDS011;5615;49.304;10.576;2023-12-07T13:43:55;16.33;;;13.80;;
11121;SDS011;5615;49.304;10.576;2023-12-07T13:46:22;21.77;;;14.63;;
11121;SDS011;5615;49.304;10.576;2023-12-07T13:48:49;18.73;;;14.43;;
11121;SDS011;5615;49.304;10.576;2023-12-07T13:51:15;15.97;;;13.37;;
11121;SDS011;5615;49.304;10.576;2023-12-07T13:53:43;15.00;;;13.27;;
11121;SDS011;5615;49.304;10.576;2023-12-07T13:56:09;17.87;;;12.77;;
11121;SDS011;5615;49.304;10.576;2023-12-07T13:58:36;16.73;;;13.13;;
11121;SDS011;5615;49.304;10.576;2023-12-07T14:01:05;16.03;;;13.23;;
11121;SDS011;5615;49.304;10.576;2023-12-07T14:03:32;17.00;;;13.27;;
11121;SDS011;5615;49.304;10.576;2023-12-07T14:05:59;18.30;;;14.30;;
11121;SDS011;5615;49.304;10.576;2023-12-07T14:08:26;17.43;;;13.50;;
11121;SDS011;5615;49.304;10.576;2023-12-07T14:10:56;14.50;;;12.10;;
11121;SDS011;5615;49.304;10.576;2023-12-07T14:13:22;15.60;;;13.37;;
11121;SDS011;5615;49.304;10.576;2023-12-07T14:15:50;16.70;;;12.90;;
11121;SDS011;5615;49.304;10.576;2023-12-07T14:18:18;17.23;;;14.17;;
11121;SDS011;5615;49.304;10.576;2023-12-07T14:20:45;14.63;;;12.77;;
11121;SDS011;5615;49.304;10.576;2023-12-07T14:23:11;16.87;;;13.37;;
11121;SDS011;5615;49.304;10.576;2023-12-07T14:25:40;15.03;;;12.97;;
11121;SDS011;5615;49.304;10.576;2023-12-07T14:28:11;19.00;;;12.70;;